Terminal Aerodrome Forecast
Issued by NWS Raleigh/Durham, NC

Home | Current Version | Previous Version | Text Only | Print | Product List | Glossary On
Versions: 1 2 3 4 5 6 7 8 9 10 11 12 13 14 15 16 17 18 19 20 21 22 23 24 25 26 27 28 29 30 31 32 33 34 35 36 37 38 39 40 41 42
000
FTUS42 KRAH 291120
TAFRDU
TAF
KRDU 291120Z 2912/3012 34010KT P6SM SCT015 BKN035
      TEMPO 2912/2914 26006KT 4SM -RA BR BKN008
     FM291600 36012G18KT P6SM SCT020 BKN035
     FM292000 35014G23KT P6SM VCSH BKN020
     FM300500 04006KT P6SM BKN050
     FM300900 02003KT P6SM SCT250=

USA.gov is the U.S. government's official web portal to all federal, state and local government web resources and services.